sensor_id;sensor_type;location;lat;lon;timestamp;P1;P2;P0
55043;PMS5003;54902;50.420;18.854;2023-02-28T00:00:03;7;7;6
55043;PMS5003;54902;50.420;18.854;2023-02-28T00:00:41;9;9;6
55043;PMS5003;54902;50.420;18.854;2023-02-28T00:01:13;9;9;6
55043;PMS5003;54902;50.420;18.854;2023-02-28T00:01:45;9;9;6
55043;PMS5003;54902;50.420;18.854;2023-02-28T00:02:16;9;9;6
55043;PMS5003;54902;50.420;18.854;2023-02-28T00:02:48;9;9;6
55043;PMS5003;54902;50.420;18.854;2023-02-28T00:03:19;9;9;6
55043;PMS5003;54902;50.420;18.854;2023-02-28T00:03:50;9;9;6
55043;PMS5003;54902;50.420;18.854;2023-02-28T00:04:21;9;9;6
55043;PMS5003;54902;50.420;18.854;2023-02-28T00:04:52;20;20;11
55043;PMS5003;54902;50.420;18.854;2023-02-28T00:05:33;12;12;8
55043;PMS5003;54902;50.420;18.854;2023-02-28T00:06:05;12;12;8
55043;PMS5003;54902;50.420;18.854;2023-02-28T00:06:39;12;12;8
55043;PMS5003;54902;50.420;18.854;2023-02-28T00:07:12;12;12;8
55043;PMS5003;54902;50.420;18.854;2023-02-28T00:07:43;12;12;8
55043;PMS5003;54902;50.420;18.854;2023-02-28T00:08:13;12;12;8
55043;PMS5003;54902;50.420;18.854;2023-02-28T00:08:45;12;12;8
55043;PMS5003;54902;50.420;18.854;2023-02-28T00:09:16;12;12;8
55043;PMS5003;54902;50.420;18.854;2023-02-28T00:09:47;12;12;8
55043;PMS5003;54902;50.420;18.854;2023-02-28T00:10:19;8;8;5
55043;PMS5003;54902;50.420;18.854;2023-02-28T00:10:53;8;8;5
55043;PMS5003;54902;50.420;18.854;2023-02-28T00:11:24;8;8;5
55043;PMS5003;54902;50.420;18.854;2023-02-28T00:11:55;8;8;5
55043;PMS5003;54902;50.420;18.854;2023-02-28T00:12:26;8;8;5
55043;PMS5003;54902;50.420;18.854;2023-02-28T00:13:02;8;8;5
55043;PMS5003;54902;50.420;18.854;2023-02-28T00:13:36;8;8;5
55043;PMS5003;54902;50.420;18.854;2023-02-28T00:14:07;8;8;5
55043;PMS5003;54902;50.420;18.854;2023-02-28T00:14:38;8;8;5
55043;PMS5003;54902;50.420;18.854;2023-02-28T00:15:10;8;8;5
55043;PMS5003;54902;50.420;18.854;2023-02-28T00:15:41;13;13;9
55043;PMS5003;54902;50.420;18.854;2023-02-28T00:16:14;13;13;9
55043;PMS5003;54902;50.420;18.854;2023-02-28T00:16:47;13;13;9
55043;PMS5003;54902;50.420;18.854;2023-02-28T00:17:18;13;13;9
55043;PMS5003;54902;50.420;18.854;2023-02-28T00:17:52;13;13;9
55043;PMS5003;54902;50.420;18.854;2023-02-28T00:18:23;13;13;9
55043;PMS5003;54902;50.420;18.854;2023-02-28T00:18:53;13;13;9
55043;PMS5003;54902;50.420;18.854;2023-02-28T00:19:24;13;13;9
55043;PMS5003;54902;50.420;18.854;2023-02-28T00:19:55;13;13;9
55043;PMS5003;54902;50.420;18.854;2023-02-28T00:20:31;13;13;9
55043;PMS5003;54902;50.420;18.854;2023-02-28T00:21:02;13;13;9
55043;PMS5003;54902;50.420;18.854;2023-02-28T00:21:34;13;13;9
55043;PMS5003;54902;50.420;18.854;2023-02-28T00:22:05;13;13;9
55043;PMS5003;54902;50.420;18.854;2023-02-28T00:22:38;13;13;9
55043;PMS5003;54902;50.420;18.854;2023-02-28T00:23:10;13;13;9
55043;PMS5003;54902;50.420;18.854;2023-02-28T00:23:41;13;13;9
55043;PMS5003;54902;50.420;18.854;2023-02-28T00:24:12;13;13;9
55043;PMS5003;54902;50.420;18.854;2023-02-28T00:24:43;13;13;9
55043;PMS5003;54902;50.420;18.854;2023-02-28T00:25:15;13;13;9
55043;PMS5003;54902;50.420;18.854;2023-02-28T00:25:47;13;13;9
55043;PMS5003;54902;50.420;18.854;2023-02-28T00:26:19;13;13;9
55043;PMS5003;54902;50.420;18.854;2023-02-28T00:26:49;13;13;9
55043;PMS5003;54902;50.420;18.854;2023-02-28T00:27:20;11;11;7
55043;PMS5003;54902;50.420;18.854;2023-02-28T00:27:51;11;11;7
55043;PMS5003;54902;50.420;18.854;2023-02-28T00:28:22;11;11;7
55043;PMS5003;54902;50.420;18.854;2023-02-28T00:28:54;11;11;7
55043;PMS5003;54902;50.420;18.854;2023-02-28T00:29:25;11;11;7
55043;PMS5003;54902;50.420;18.854;2023-02-28T00:29:55;11;11;7
55043;PMS5003;54902;50.420;18.854;2023-02-28T00:30:26;11;11;7
55043;PMS5003;54902;50.420;18.854;2023-02-28T00:30:57;11;11;7
55043;PMS5003;54902;50.420;18.854;2023-02-28T00:31:30;17;17;11
55043;PMS5003;54902;50.420;18.854;2023-02-28T00:32:01;17;17;11
55043;PMS5003;54902;50.420;18.854;2023-02-28T00:32:32;17;17;11
55043;PMS5003;54902;50.420;18.854;2023-02-28T00:33:04;17;17;11
55043;PMS5003;54902;50.420;18.854;2023-02-28T00:33:35;17;17;11
55043;PMS5003;54902;50.420;18.854;2023-02-28T00:34:06;17;17;11
55043;PMS5003;54902;50.420;18.854;2023-02-28T00:34:37;17;17;11
55043;PMS5003;54902;50.420;18.854;2023-02-28T00:35:09;17;17;11
55043;PMS5003;54902;50.420;18.854;2023-02-28T00:35:40;17;17;11
55043;PMS5003;54902;50.420;18.854;2023-02-28T00:36:12;17;17;11
55043;PMS5003;54902;50.420;18.854;2023-02-28T00:36:43;18;18;12
55043;PMS5003;54902;50.420;18.854;2023-02-28T00:37:18;18;18;12
55043;PMS5003;54902;50.420;18.854;2023-02-28T00:37:49;8;8;5
55043;PMS5003;54902;50.420;18.854;2023-02-28T00:38:20;8;8;5
55043;PMS5003;54902;50.420;18.854;2023-02-28T00:38:51;8;8;5
55043;PMS5003;54902;50.420;18.854;2023-02-28T00:39:22;8;8;5
55043;PMS5003;54902;50.420;18.854;2023-02-28T00:39:53;8;8;5
55043;PMS5003;54902;50.420;18.854;2023-02-28T00:40:24;8;8;5
55043;PMS5003;54902;50.420;18.854;2023-02-28T00:40:55;8;8;5
55043;PMS5003;54902;50.420;18.854;2023-02-28T00:41:26;8;8;5
55043;PMS5003;54902;50.420;18.854;2023-02-28T00:41:57;9;9;6
55043;PMS5003;54902;50.420;18.854;2023-02-28T00:42:28;9;9;6
55043;PMS5003;54902;50.420;18.854;2023-02-28T00:42:59;9;9;6
55043;PMS5003;54902;50.420;18.854;2023-02-28T00:43:30;9;9;6
55043;PMS5003;54902;50.420;18.854;2023-02-28T00:44:05;9;9;6
55043;PMS5003;54902;50.420;18.854;2023-02-28T00:44:36;9;9;6
55043;PMS5003;54902;50.420;18.854;2023-02-28T00:45:07;9;9;6
55043;PMS5003;54902;50.420;18.854;2023-02-28T00:45:39;9;9;6
55043;PMS5003;54902;50.420;18.854;2023-02-28T00:46:10;9;9;6
55043;PMS5003;54902;50.420;18.854;2023-02-28T00:46:40;9;9;6
55043;PMS5003;54902;50.420;18.854;2023-02-28T00:47:11;10;10;7
55043;PMS5003;54902;50.420;18.854;2023-02-28T00:47:42;10;10;7
55043;PMS5003;54902;50.420;18.854;2023-02-28T00:48:13;10;10;7
55043;PMS5003;54902;50.420;18.854;2023-02-28T00:48:44;10;10;7
55043;PMS5003;54902;50.420;18.854;2023-02-28T00:49:15;10;10;7
55043;PMS5003;54902;50.420;18.854;2023-02-28T00:49:46;10;10;7
55043;PMS5003;54902;50.420;18.854;2023-02-28T00:50:17;10;10;7
55043;PMS5003;54902;50.420;18.854;2023-02-28T00:50:50;10;10;7
55043;PMS5003;54902;50.420;18.854;2023-02-28T00:51:21;8;8;6
55043;PMS5003;54902;50.420;18.854;2023-02-28T00:51:52;8;8;6
55043;PMS5003;54902;50.420;18.854;2023-02-28T00:52:24;7;7;5
55043;PMS5003;54902;50.420;18.854;2023-02-28T00:52:55;7;7;5
55043;PMS5003;54902;50.420;18.854;2023-02-28T00:53:26;7;7;5
55043;PMS5003;54902;50.420;18.854;2023-02-28T00:53:57;7;7;5
55043;PMS5003;54902;50.420;18.854;2023-02-28T00:54:28;7;7;5
55043;PMS5003;54902;50.420;18.854;2023-02-28T00:54:59;7;7;5
55043;PMS5003;54902;50.420;18.854;2023-02-28T00:55:30;7;7;5
55043;PMS5003;54902;50.420;18.854;2023-02-28T00:56:01;7;7;5
55043;PMS5003;54902;50.420;18.854;2023-02-28T00:56:33;7;7;5
55043;PMS5003;54902;50.420;18.854;2023-02-28T00:57:03;7;7;5
55043;PMS5003;54902;50.420;18.854;2023-02-28T00:57:34;10;10;7
55043;PMS5003;54902;50.420;18.854;2023-02-28T00:58:05;10;10;7
55043;PMS5003;54902;50.420;18.854;2023-02-28T00:58:36;10;10;7
55043;PMS5003;54902;50.420;18.854;2023-02-28T00:59:07;10;10;7
55043;PMS5003;54902;50.420;18.854;2023-02-28T00:59:38;10;10;7
55043;PMS5003;54902;50.420;18.854;2023-02-28T01:00:10;10;10;7
55043;PMS5003;54902;50.420;18.854;2023-02-28T01:00:41;10;10;7
55043;PMS5003;54902;50.420;18.854;2023-02-28T01:01:12;10;10;7
55043;PMS5003;54902;50.420;18.854;2023-02-28T01:01:44;10;10;7
55043;PMS5003;54902;50.420;18.854;2023-02-28T01:02:16;10;10;7
55043;PMS5003;54902;50.420;18.854;2023-02-28T01:02:49;10;10;7
55043;PMS5003;54902;50.420;18.854;2023-02-28T01:03:21;10;10;7
55043;PMS5003;54902;50.420;18.854;2023-02-28T01:03:52;10;10;7
55043;PMS5003;54902;50.420;18.854;2023-02-28T01:04:23;10;10;7
55043;PMS5003;54902;50.420;18.854;2023-02-28T01:04:54;10;10;7
55043;PMS5003;54902;50.420;18.854;2023-02-28T01:05:27;10;10;7
55043;PMS5003;54902;50.420;18.854;2023-02-28T01:05:57;10;10;7
55043;PMS5003;54902;50.420;18.854;2023-02-28T01:06:28;10;10;7
55043;PMS5003;54902;50.420;18.854;2023-02-28T01:06:59;10;10;7
55043;PMS5003;54902;50.420;18.854;2023-02-28T01:07:30;10;10;7
55043;PMS5003;54902;50.420;18.854;2023-02-28T01:08:01;10;10;7
55043;PMS5003;54902;50.420;18.854;2023-02-28T01:08:32;10;10;7
55043;PMS5003;54902;50.420;18.854;2023-02-28T01:09:04;10;10;7
55043;PMS5003;54902;50.420;18.854;2023-02-28T01:09:36;10;10;7
55043;PMS5003;54902;50.420;18.854;2023-02-28T01:10:07;10;10;7
55043;PMS5003;54902;50.420;18.854;2023-02-28T01:10:39;10;10;7
55043;PMS5003;54902;50.420;18.854;2023-02-28T01:11:11;10;10;7
55043;PMS5003;54902;50.420;18.854;2023-02-28T01:11:44;10;10;7
55043;PMS5003;54902;50.420;18.854;2023-02-28T01:12:15;10;10;7
55043;PMS5003;54902;50.420;18.854;2023-02-28T01:12:46;10;10;7
55043;PMS5003;54902;50.420;18.854;2023-02-28T01:13:17;10;10;7
55043;PMS5003;54902;50.420;18.854;2023-02-28T01:13:49;10;10;7
55043;PMS5003;54902;50.420;18.854;2023-02-28T01:14:20;6;5;4
55043;PMS5003;54902;50.420;18.854;2023-02-28T01:14:51;6;5;4
55043;PMS5003;54902;50.420;18.854;2023-02-28T01:15:22;6;5;4
55043;PMS5003;54902;50.420;18.854;2023-02-28T01:15:54;6;5;4
55043;PMS5003;54902;50.420;18.854;2023-02-28T01:16:27;6;5;4
55043;PMS5003;54902;50.420;18.854;2023-02-28T01:16:58;6;5;4
55043;PMS5003;54902;50.420;18.854;2023-02-28T01:17:29;6;5;4
55043;PMS5003;54902;50.420;18.854;2023-02-28T01:18:00;6;5;4
55043;PMS5003;54902;50.420;18.854;2023-02-28T01:18:31;11;9;6
55043;PMS5003;54902;50.420;18.854;2023-02-28T01:19:02;11;9;6
55043;PMS5003;54902;50.420;18.854;2023-02-28T01:19:33;11;9;6
55043;PMS5003;54902;50.420;18.854;2023-02-28T01:20:05;11;9;6
55043;PMS5003;54902;50.420;18.854;2023-02-28T01:20:37;11;9;6
55043;PMS5003;54902;50.420;18.854;2023-02-28T01:21:10;11;9;6
55043;PMS5003;54902;50.420;18.854;2023-02-28T01:21:44;11;9;6
55043;PMS5003;54902;50.420;18.854;2023-02-28T01:22:14;11;9;6
55043;PMS5003;54902;50.420;18.854;2023-02-28T01:22:46;11;9;6
55043;PMS5003;54902;50.420;18.854;2023-02-28T01:23:17;11;9;6
55043;PMS5003;54902;50.420;18.854;2023-02-28T01:23:48;8;8;6
55043;PMS5003;54902;50.420;18.854;2023-02-28T01:24:19;8;8;6
55043;PMS5003;54902;50.420;18.854;2023-02-28T01:24:50;8;8;6
55043;PMS5003;54902;50.420;18.854;2023-02-28T01:25:21;8;8;6
55043;PMS5003;54902;50.420;18.854;2023-02-28T01:25:52;8;8;6
55043;PMS5003;54902;50.420;18.854;2023-02-28T01:26:23;8;8;6
55043;PMS5003;54902;50.420;18.854;2023-02-28T01:26:54;8;8;6
55043;PMS5003;54902;50.420;18.854;2023-02-28T01:27:25;8;8;6
55043;PMS5003;54902;50.420;18.854;2023-02-28T01:27:58;8;8;6
55043;PMS5003;54902;50.420;18.854;2023-02-28T01:28:29;8;8;6
55043;PMS5003;54902;50.420;18.854;2023-02-28T01:29:00;13;13;9
55043;PMS5003;54902;50.420;18.854;2023-02-28T01:29:31;13;13;9
55043;PMS5003;54902;50.420;18.854;2023-02-28T01:30:02;13;13;9
55043;PMS5003;54902;50.420;18.854;2023-02-28T01:30:33;13;13;9
55043;PMS5003;54902;50.420;18.854;2023-02-28T01:31:04;13;13;9
55043;PMS5003;54902;50.420;18.854;2023-02-28T01:31:36;13;13;9
55043;PMS5003;54902;50.420;18.854;2023-02-28T01:32:07;13;13;9
55043;PMS5003;54902;50.420;18.854;2023-02-28T01:32:38;13;13;9
55043;PMS5003;54902;50.420;18.854;2023-02-28T01:33:09;13;13;9
55043;PMS5003;54902;50.420;18.854;2023-02-28T01:33:40;13;13;9
55043;PMS5003;54902;50.420;18.854;2023-02-28T01:34:11;13;13;9
55043;PMS5003;54902;50.420;18.854;2023-02-28T01:34:42;13;13;9
55043;PMS5003;54902;50.420;18.854;2023-02-28T01:35:13;8;8;5
55043;PMS5003;54902;50.420;18.854;2023-02-28T01:35:44;8;8;5
55043;PMS5003;54902;50.420;18.854;2023-02-28T01:36:19;8;8;5
55043;PMS5003;54902;50.420;18.854;2023-02-28T01:36:52;8;8;5
55043;PMS5003;54902;50.420;18.854;2023-02-28T01:37:23;8;8;5
55043;PMS5003;54902;50.420;18.854;2023-02-28T01:37:54;8;8;5
55043;PMS5003;54902;50.420;18.854;2023-02-28T01:38:25;8;8;5
55043;PMS5003;54902;50.420;18.854;2023-02-28T01:38:56;8;8;5
55043;PMS5003;54902;50.420;18.854;2023-02-28T01:39:27;11;11;6
55043;PMS5003;54902;50.420;18.854;2023-02-28T01:39:58;11;11;6
55043;PMS5003;54902;50.420;18.854;2023-02-28T01:40:29;11;11;6
55043;PMS5003;54902;50.420;18.854;2023-02-28T01:41:00;11;11;6
55043;PMS5003;54902;50.420;18.854;2023-02-28T01:41:33;11;11;6
55043;PMS5003;54902;50.420;18.854;2023-02-28T01:42:04;11;11;6
55043;PMS5003;54902;50.420;18.854;2023-02-28T01:42:35;11;11;6
55043;PMS5003;54902;50.420;18.854;2023-02-28T01:45:56;12;12;7
55043;PMS5003;54902;50.420;18.854;2023-02-28T01:46:29;12;12;7
55043;PMS5003;54902;50.420;18.854;2023-02-28T01:47:01;12;12;7
55043;PMS5003;54902;50.420;18.854;2023-02-28T01:47:36;8;8;5
55043;PMS5003;54902;50.420;18.854;2023-02-28T01:48:11;8;8;5
55043;PMS5003;54902;50.420;18.854;2023-02-28T01:48:47;8;8;5
55043;PMS5003;54902;50.420;18.854;2023-02-28T01:49:21;8;8;5
55043;PMS5003;54902;50.420;18.854;2023-02-28T01:49:52;8;8;5
55043;PMS5003;54902;50.420;18.854;2023-02-28T01:50:25;9;9;7
55043;PMS5003;54902;50.420;18.854;2023-02-28T01:51:01;6;6;4
55043;PMS5003;54902;50.420;18.854;2023-02-28T01:51:42;6;6;4
55043;PMS5003;54902;50.420;18.854;2023-02-28T01:52:24;6;6;4
55043;PMS5003;54902;50.420;18.854;2023-02-28T01:52:57;6;6;4
55043;PMS5003;54902;50.420;18.854;2023-02-28T01:53:33;6;6;4
55043;PMS5003;54902;50.420;18.854;2023-02-28T01:54:12;6;6;4
55043;PMS5003;54902;50.420;18.854;2023-02-28T01:54:51;6;6;4
55043;PMS5003;54902;50.420;18.854;2023-02-28T01:55:24;6;6;4
55043;PMS5003;54902;50.420;18.854;2023-02-28T01:55:59;6;6;4
55043;PMS5003;54902;50.420;18.854;2023-02-28T01:56:31;6;6;4
55043;PMS5003;54902;50.420;18.854;2023-02-28T01:57:10;12;12;7
55043;PMS5003;54902;50.420;18.854;2023-02-28T01:57:46;4;4;2
55043;PMS5003;54902;50.420;18.854;2023-02-28T01:58:21;4;4;2
55043;PMS5003;54902;50.420;18.854;2023-02-28T01:58:53;4;4;2
55043;PMS5003;54902;50.420;18.854;2023-02-28T01:59:35;4;4;2
55043;PMS5003;54902;50.420;18.854;2023-02-28T02:00:11;4;4;2
55043;PMS5003;54902;50.420;18.854;2023-02-28T02:00:46;4;4;2
55043;PMS5003;54902;50.420;18.854;2023-02-28T02:01:18;4;4;2
55043;PMS5003;54902;50.420;18.854;2023-02-28T02:01:51;4;4;2
55043;PMS5003;54902;50.420;18.854;2023-02-28T02:02:26;4;4;2
55043;PMS5003;54902;50.420;18.854;2023-02-28T02:02:59;6;6;6
55043;PMS5003;54902;50.420;18.854;2023-02-28T02:03:36;6;6;6
55043;PMS5003;54902;50.420;18.854;2023-02-28T02:04:07;6;6;6
55043;PMS5003;54902;50.420;18.854;2023-02-28T02:04:48;6;6;6
55043;PMS5003;54902;50.420;18.854;2023-02-28T02:05:22;6;6;6
55043;PMS5003;54902;50.420;18.854;2023-02-28T02:05:55;6;6;6
55043;PMS5003;54902;50.420;18.854;2023-02-28T02:06:29;6;6;6
55043;PMS5003;54902;50.420;18.854;2023-02-28T02:07:09;6;6;6
55043;PMS5003;54902;50.420;18.854;2023-02-28T02:07:42;6;6;6
55043;PMS5003;54902;50.420;18.854;2023-02-28T02:08:19;6;6;6
55043;PMS5003;54902;50.420;18.854;2023-02-28T02:08:53;12;12;10
55043;PMS5003;54902;50.420;18.854;2023-02-28T02:09:24;12;12;10
55043;PMS5003;54902;50.420;18.854;2023-02-28T02:11:23;12;12;10
55043;PMS5003;54902;50.420;18.854;2023-02-28T02:11:56;12;12;10
55043;PMS5003;54902;50.420;18.854;2023-02-28T02:14:04;12;12;10
55043;PMS5003;54902;50.420;18.854;2023-02-28T02:16:18;12;12;10
55043;PMS5003;54902;50.420;18.854;2023-02-28T02:17:41;12;12;10
55043;PMS5003;54902;50.420;18.854;2023-02-28T02:21:13;12;12;10
55043;PMS5003;54902;50.420;18.854;2023-02-28T02:24:01;12;12;10
55043;PMS5003;54902;50.420;18.854;2023-02-28T02:32:04;5;5;4
55043;PMS5003;54902;50.420;18.854;2023-02-28T02:36:59;10;10;7
55043;PMS5003;54902;50.420;18.854;2023-02-28T02:37:38;10;10;7
55043;PMS5003;54902;50.420;18.854;2023-02-28T02:39:02;10;10;7
55043;PMS5003;54902;50.420;18.854;2023-02-28T02:39:48;10;10;7
55043;PMS5003;54902;50.420;18.854;2023-02-28T02:41:09;7;7;5
55043;PMS5003;54902;50.420;18.854;2023-02-28T02:41:53;7;7;5
55043;PMS5003;54902;50.420;18.854;2023-02-28T02:42:31;7;7;5
55043;PMS5003;54902;50.420;18.854;2023-02-28T02:43:13;7;7;5
55043;PMS5003;54902;50.420;18.854;2023-02-28T02:44:01;8;8;5
55043;PMS5003;54902;50.420;18.854;2023-02-28T02:45:31;8;8;5
55043;PMS5003;54902;50.420;18.854;2023-02-28T02:46:07;8;8;5
55043;PMS5003;54902;50.420;18.854;2023-02-28T02:46:47;8;8;5
55043;PMS5003;54902;50.420;18.854;2023-02-28T02:47:21;8;8;5
55043;PMS5003;54902;50.420;18.854;2023-02-28T02:47:58;8;8;5
55043;PMS5003;54902;50.420;18.854;2023-02-28T02:48:32;8;8;5
55043;PMS5003;54902;50.420;18.854;2023-02-28T02:49:08;8;8;5
55043;PMS5003;54902;50.420;18.854;2023-02-28T02:49:45;8;8;5
55043;PMS5003;54902;50.420;18.854;2023-02-28T02:51:03;10;10;7
55043;PMS5003;54902;50.420;18.854;2023-02-28T02:51:42;10;10;7
55043;PMS5003;54902;50.420;18.854;2023-02-28T02:52:18;10;10;7
55043;PMS5003;54902;50.420;18.854;2023-02-28T02:52:54;10;10;7
55043;PMS5003;54902;50.420;18.854;2023-02-28T02:54:10;10;10;7
55043;PMS5003;54902;50.420;18.854;2023-02-28T02:54:46;10;10;7
55043;PMS5003;54902;50.420;18.854;2023-02-28T02:55:23;10;10;7
55043;PMS5003;54902;50.420;18.854;2023-02-28T02:55:54;10;10;7
55043;PMS5003;54902;50.420;18.854;2023-02-28T02:56:28;10;10;7
55043;PMS5003;54902;50.420;18.854;2023-02-28T02:57:10;10;10;7
55043;PMS5003;54902;50.420;18.854;2023-02-28T02:58:08;10;10;7
55043;PMS5003;54902;50.420;18.854;2023-02-28T02:58:30;10;10;7
55043;PMS5003;54902;50.420;18.854;2023-02-28T02:59:07;10;10;6
55043;PMS5003;54902;50.420;18.854;2023-02-28T02:59:43;10;10;6
55043;PMS5003;54902;50.420;18.854;2023-02-28T03:00:16;10;10;6
55043;PMS5003;54902;50.420;18.854;2023-02-28T03:00:52;10;10;6
55043;PMS5003;54902;50.420;18.854;2023-02-28T03:01:26;10;10;6
55043;PMS5003;54902;50.420;18.854;2023-02-28T03:02:01;10;10;6
55043;PMS5003;54902;50.420;18.854;2023-02-28T03:02:36;12;12;6
55043;PMS5003;54902;50.420;18.854;2023-02-28T03:03:10;7;7;6
55043;PMS5003;54902;50.420;18.854;2023-02-28T03:03:43;7;7;6
55043;PMS5003;54902;50.420;18.854;2023-02-28T03:04:16;7;7;6
55043;PMS5003;54902;50.420;18.854;2023-02-28T03:04:51;7;7;6
55043;PMS5003;54902;50.420;18.854;2023-02-28T03:05:39;7;7;6
55043;PMS5003;54902;50.420;18.854;2023-02-28T03:06:12;7;7;6
55043;PMS5003;54902;50.420;18.854;2023-02-28T03:06:45;7;7;6
55043;PMS5003;54902;50.420;18.854;2023-02-28T03:07:16;7;7;6
55043;PMS5003;54902;50.420;18.854;2023-02-28T03:07:47;7;7;6
55043;PMS5003;54902;50.420;18.854;2023-02-28T03:08:18;8;8;4
55043;PMS5003;54902;50.420;18.854;2023-02-28T03:08:50;8;8;4
55043;PMS5003;54902;50.420;18.854;2023-02-28T03:09:24;8;8;4
55043;PMS5003;54902;50.420;18.854;2023-02-28T03:09:56;8;8;4
55043;PMS5003;54902;50.420;18.854;2023-02-28T03:11:12;8;8;4
55043;PMS5003;54902;50.420;18.854;2023-02-28T03:11:45;8;8;4
55043;PMS5003;54902;50.420;18.854;2023-02-28T03:12:16;8;8;4
55043;PMS5003;54902;50.420;18.854;2023-02-28T03:12:49;8;8;4
55043;PMS5003;54902;50.420;18.854;2023-02-28T03:15:46;13;13;7
55043;PMS5003;54902;50.420;18.854;2023-02-28T03:17:57;13;13;7
55043;PMS5003;54902;50.420;18.854;2023-02-28T03:20:04;13;13;7
55043;PMS5003;54902;50.420;18.854;2023-02-28T03:22:55;13;13;7
55043;PMS5003;54902;50.420;18.854;2023-02-28T03:23:42;13;13;7
55043;PMS5003;54902;50.420;18.854;2023-02-28T03:26:28;13;13;7
55043;PMS5003;54902;50.420;18.854;2023-02-28T03:27:06;13;13;7
55043;PMS5003;54902;50.420;18.854;2023-02-28T03:28:31;13;13;7
55043;PMS5003;54902;50.420;18.854;2023-02-28T03:29:09;13;13;7
55043;PMS5003;54902;50.420;18.854;2023-02-28T03:30:09;13;13;7
55043;PMS5003;54902;50.420;18.854;2023-02-28T03:30:39;4;4;2
55043;PMS5003;54902;50.420;18.854;2023-02-28T03:31:19;4;4;2
55043;PMS5003;54902;50.420;18.854;2023-02-28T03:32:00;4;4;2
55043;PMS5003;54902;50.420;18.854;2023-02-28T03:32:40;4;4;2
55043;PMS5003;54902;50.420;18.854;2023-02-28T03:33:27;4;4;2
55043;PMS5003;54902;50.420;18.854;2023-02-28T03:34:48;4;4;2
55043;PMS5003;54902;50.420;18.854;2023-02-28T03:35:28;3;3;3
55043;PMS5003;54902;50.420;18.854;2023-02-28T03:36:07;3;3;3
55043;PMS5003;54902;50.420;18.854;2023-02-28T03:36:48;3;3;3
55043;PMS5003;54902;50.420;18.854;2023-02-28T03:37:23;3;3;3
55043;PMS5003;54902;50.420;18.854;2023-02-28T03:38:04;3;3;3
55043;PMS5003;54902;50.420;18.854;2023-02-28T03:38:46;3;3;3
55043;PMS5003;54902;50.420;18.854;2023-02-28T03:39:27;3;3;3
55043;PMS5003;54902;50.420;18.854;2023-02-28T03:40:08;3;3;3
55043;PMS5003;54902;50.420;18.854;2023-02-28T03:40:49;3;3;3
55043;PMS5003;54902;50.420;18.854;2023-02-28T03:41:27;3;3;3
55043;PMS5003;54902;50.420;18.854;2023-02-28T03:42:09;4;4;3
55043;PMS5003;54902;50.420;18.854;2023-02-28T03:42:45;4;4;3
55043;PMS5003;54902;50.420;18.854;2023-02-28T03:43:22;4;4;3
55043;PMS5003;54902;50.420;18.854;2023-02-28T03:44:03;4;4;3
55043;PMS5003;54902;50.420;18.854;2023-02-28T03:44:50;4;4;3
55043;PMS5003;54902;50.420;18.854;2023-02-28T03:45:28;4;4;3
55043;PMS5003;54902;50.420;18.854;2023-02-28T03:46:02;4;4;3
55043;PMS5003;54902;50.420;18.854;2023-02-28T03:46:38;4;4;3
55043;PMS5003;54902;50.420;18.854;2023-02-28T03:47:17;4;4;3
55043;PMS5003;54902;50.420;18.854;2023-02-28T03:47:57;4;4;3
55043;PMS5003;54902;50.420;18.854;2023-02-28T03:48:37;4;4;3
55043;PMS5003;54902;50.420;18.854;2023-02-28T03:49:18;4;4;3
55043;PMS5003;54902;50.420;18.854;2023-02-28T03:50:40;4;4;3
55043;PMS5003;54902;50.420;18.854;2023-02-28T03:51:15;4;4;3
55043;PMS5003;54902;50.420;18.854;2023-02-28T03:51:49;4;4;3
55043;PMS5003;54902;50.420;18.854;2023-02-28T03:52:23;4;4;3
55043;PMS5003;54902;50.420;18.854;2023-02-28T03:53:04;4;4;3
55043;PMS5003;54902;50.420;18.854;2023-02-28T03:53:53;4;4;3
55043;PMS5003;54902;50.420;18.854;2023-02-28T03:54:23;4;4;3
55043;PMS5003;54902;50.420;18.854;2023-02-28T03:55:01;4;4;3
55043;PMS5003;54902;50.420;18.854;2023-02-28T03:55:43;4;4;3
55043;PMS5003;54902;50.420;18.854;2023-02-28T03:57:06;4;4;3
55043;PMS5003;54902;50.420;18.854;2023-02-28T03:57:48;4;4;3
55043;PMS5003;54902;50.420;18.854;2023-02-28T03:58:32;4;4;3
55043;PMS5003;54902;50.420;18.854;2023-02-28T03:59:13;4;4;3
55043;PMS5003;54902;50.420;18.854;2023-02-28T03:59:58;4;4;3
55043;PMS5003;54902;50.420;18.854;2023-02-28T04:00:30;4;4;3
55043;PMS5003;54902;50.420;18.854;2023-02-28T04:01:07;4;4;3
55043;PMS5003;54902;50.420;18.854;2023-02-28T04:01:44;4;4;3
55043;PMS5003;54902;50.420;18.854;2023-02-28T04:02:17;4;4;3
55043;PMS5003;54902;50.420;18.854;2023-02-28T04:02:48;4;4;3
55043;PMS5003;54902;50.420;18.854;2023-02-28T04:03:22;4;4;3
55043;PMS5003;54902;50.420;18.854;2023-02-28T04:03:54;4;4;3
55043;PMS5003;54902;50.420;18.854;2023-02-28T04:04:25;4;4;3
55043;PMS5003;54902;50.420;18.854;2023-02-28T04:04:56;2;2;2
55043;PMS5003;54902;50.420;18.854;2023-02-28T04:05:27;2;2;2
55043;PMS5003;54902;50.420;18.854;2023-02-28T04:05:59;2;2;2
55043;PMS5003;54902;50.420;18.854;2023-02-28T04:06:31;2;2;2
55043;PMS5003;54902;50.420;18.854;2023-02-28T04:07:07;1;1;1
55043;PMS5003;54902;50.420;18.854;2023-02-28T04:07:38;8;8;6
55043;PMS5003;54902;50.420;18.854;2023-02-28T04:08:09;8;8;6
55043;PMS5003;54902;50.420;18.854;2023-02-28T04:08:40;8;8;6
55043;PMS5003;54902;50.420;18.854;2023-02-28T04:09:13;8;8;6
55043;PMS5003;54902;50.420;18.854;2023-02-28T04:09:45;8;8;6
55043;PMS5003;54902;50.420;18.854;2023-02-28T04:10:16;8;8;6
55043;PMS5003;54902;50.420;18.854;2023-02-28T04:10:50;8;8;6
55043;PMS5003;54902;50.420;18.854;2023-02-28T04:11:36;8;8;6
55043;PMS5003;54902;50.420;18.854;2023-02-28T04:12:08;8;8;6
55043;PMS5003;54902;50.420;18.854;2023-02-28T04:12:39;13;13;10
55043;PMS5003;54902;50.420;18.854;2023-02-28T04:13:10;13;13;10
55043;PMS5003;54902;50.420;18.854;2023-02-28T04:13:41;13;13;10
55043;PMS5003;54902;50.420;18.854;2023-02-28T04:14:12;13;13;10
55043;PMS5003;54902;50.420;18.854;2023-02-28T04:14:43;13;13;10
55043;PMS5003;54902;50.420;18.854;2023-02-28T04:15:14;13;13;10
55043;PMS5003;54902;50.420;18.854;2023-02-28T04:15:45;9;9;7
55043;PMS5003;54902;50.420;18.854;2023-02-28T04:16:16;9;9;7
55043;PMS5003;54902;50.420;18.854;2023-02-28T04:16:47;9;9;7
55043;PMS5003;54902;50.420;18.854;2023-02-28T04:17:18;9;9;7
55043;PMS5003;54902;50.420;18.854;2023-02-28T04:17:49;9;9;7
55043;PMS5003;54902;50.420;18.854;2023-02-28T04:18:20;9;9;7
55043;PMS5003;54902;50.420;18.854;2023-02-28T04:18:51;9;9;7
55043;PMS5003;54902;50.420;18.854;2023-02-28T04:19:22;9;9;7
55043;PMS5003;54902;50.420;18.854;2023-02-28T04:19:53;9;9;7
55043;PMS5003;54902;50.420;18.854;2023-02-28T04:20:27;9;9;7
55043;PMS5003;54902;50.420;18.854;2023-02-28T04:20:59;9;9;7
55043;PMS5003;54902;50.420;18.854;2023-02-28T04:21:32;9;9;7
55043;PMS5003;54902;50.420;18.854;2023-02-28T04:22:05;9;9;7
55043;PMS5003;54902;50.420;18.854;2023-02-28T04:22:36;9;9;7